Flight Track Log - Related Links

Times and Time Zones

All times are in EDT time to prevent confusion due to time zone crossing. See the ASQ5958 flight status page for this flight to view local times or setup timezone preferences in your user account.

Time Position Orientation Groundspeed Altitude Reporting Facility
EDT Latitude Longitude Course Direction KTS MPH feet Rate Location/Type
Fri 07:50:41 AM 42.1972 -83.3636 285° West 168 193 1,400  Level Cleveland Center
Fri 07:51:23 AM 42.1736 -83.3933 223° Southwest 187 215 2,900 1,979 Climbing Cleveland Center
Fri 07:52:18 AM 42.1347 -83.4447 224° Southwest 219 252 4,600 1,800 Climbing Cleveland Center
Fri 07:53:43 AM 42.1447 -83.5461 278° West 249 287 7,100 1,934 Climbing Cleveland Center
Fri 07:54:00 AM 42.2978 -83.7201 283° West  Level FlightAware Approximate
Fri 07:54:19 AM 42.1664 -83.5947 301° West 262 302 8,500  Level Cleveland Center
Fri 07:55:00 AM 42.3164 -83.8153 285° West  Level FlightAware Approximate
Fri 07:55:20 AM 42.2039 -83.6778 301° West 256 295 10,400  Level Cleveland Center
Fri 07:56:20 AM 42.2450 -83.7753 300° West 271 312 11,000 967 Climbing Cleveland Center
Fri 07:58:20 AM 42.3408 -83.9964 300° West 336 387 13,300 1,200 Climbing Cleveland Center
Fri 07:59:20 AM 42.3875 -84.1086 299° West 348 400 14,600 1,350 Climbing Cleveland Center
Fri 08:00:20 AM 42.4083 -84.2364 282° West 348 400 16,000 1,400 Climbing Cleveland Center
Fri 08:01:20 AM 42.4208 -84.3694 277° West 348 400 17,400 1,500 Climbing Cleveland Center
Fri 08:02:20 AM 42.4331 -84.4994 277° West 354 407 19,000 1,450 Climbing Cleveland Center
Fri 08:03:20 AM 42.4389 -84.6350 273° West 354 407 20,300 1,250 Climbing Cleveland Center
Fri 08:04:20 AM 42.4406 -84.7589 271° West 359 413 21,500 1,233 Climbing Cleveland Center
Fri 08:05:46 AM 42.4469 -84.9469 273° West 370 426 23,300 1,014 Climbing Chicago Center
Fri 08:06:48 AM 42.4497 -85.1169 271° West 375 432 24,000 339 Climbing Chicago Center
Fri 08:07:50 AM 42.4531 -85.2672 272° West 395 455 24,000  Level Chicago Center
Fri 08:08:52 AM 42.4558 -85.4256 271° West 414 476 24,000  Level Chicago Center
Fri 08:09:54 AM 42.4589 -85.5894 272° West 425 489 24,000  Level Chicago Center
Fri 08:10:56 AM 42.4608 -85.7464 271° West 426 490 24,000  Level Chicago Center
Fri 08:11:58 AM 42.4633 -85.9094 271° West 430 495 24,000  Level Chicago Center
Fri 08:13:00 AM 42.4650 -86.0725 271° West 431 496 24,000  Level Chicago Center
Fri 08:14:01 AM 42.4653 -86.2336 270° West 428 493 24,000 -976 Level Chicago Center
Fri 08:15:03 AM 42.4636 -86.4253 269° West 424 488 22,000 -2,177 Descending Chicago Center
Fri 08:16:05 AM 42.4619 -86.5758 269° West 404 465 19,500 -3,000 Descending Chicago Center
Fri 08:17:07 AM 42.4614 -86.7208 270° West 387 445 15,800 -3,242 Descending Chicago Center
Fri 08:18:09 AM 42.4603 -86.8536 269° West 366 421 12,800 -2,371 Descending Chicago Center
Fri 08:19:11 AM 42.4583 -86.9783 269° West 343 395 10,900 -1,403 Descending Chicago Center
Fri 08:20:13 AM 42.4556 -87.0828 268° West 288 331 9,900 -919 Descending Chicago Center
Fri 08:21:15 AM 42.4219 -87.1678 242° Southwest 288 331 9,000 -629 Descending Chicago Center
Fri 08:22:17 AM 42.3419 -87.2325 211° Southwest 285 328 8,600 -677 Descending Chicago Center
Fri 08:23:19 AM 42.2775 -87.2869 212° Southwest 274 315 7,600 -774 Descending Chicago Center
Fri 08:24:21 AM 42.2111 -87.3408 211° Southwest 278 320 7,000 -290 Descending Chicago Center
Fri 08:25:23 AM 42.1314 -87.3450 182° South 282 325 7,000  Level Chicago Center
Fri 08:26:25 AM 42.0500 -87.3514 183° South 289 333 7,000  Level Chicago Center
Fri 08:27:27 AM 41.9808 -87.4067 211° Southwest 265 305 7,000 -242 Level Chicago Center
Fri 08:28:29 AM 41.9844 -87.4869 273° West 227 261 6,500 -871 Descending Chicago Center
Fri 08:29:31 AM 41.9831 -87.5694 269° West 223 257 5,200 -1,171 Descending Chicago Center
Fri 08:30:32 AM 41.9839 -87.6497 271° West 221 254 4,100 -1,073 Descending Chicago Center
Fri 08:31:34 AM 41.9833 -87.7256 269° West 211 243 3,000 -1,016 Descending Chicago Center
Fri 08:32:36 AM 41.9839 -87.8019 271° West 183 211 2,000 -823 Descending Chicago Center
Fri 08:33:38 AM 41.9839 -87.8447 270° West 145 167 1,300 -387 Descending Chicago Center
Fri 08:34:40 AM 41.9836 -87.8897 270° West 140 161 1,200 -97 Descending Chicago Center

Login

Don't have an account? Register now (free) for customized features, flight alerts, and more!